Summit Point, West Virginia
Current Conditions -  °F | °C
As of 7:53 AM on Wednesday 22 Oct 2014 (Local Time) from KMRB Reporting Station
Overcast Overcast  
Wind Chill: 54°   Ceiling: 3400
Heat Index: 54°   Visibility: 10mi
Dew Point: 45°   Wind: 12mph
Humidity: 72%   Direction: 340°NNW
Pressure: 29.97"   Gusts: NA
Location:  39.25°N, 77.96°W
Report Text: KMRB 221153Z 34010KT 10SM OVC034 12/07 A2997 RMK AO2 SLP149 60000 70004 T01220072 10122 20111 53015
Loading
Personal Weather Stations






























Interactive Weather Map
Tropical Storm Tracking
New forecast layout! Learn more

10-Day Weather Forecast

Advertisements
Track Severe Weather on mobile